YHM weather

John C. Munro Hamilton International Airport
Hamilton, Ontario, Canada

Public forecast

Using degrees Celsius for public forecast. Weather courtesy of forecast.io.

Current aviation weather report (METAR) for John C. Munro Hamilton International Airport

Retrieved 2019/10/19 21:00 UTC (52 minutes ago):

CYHM 192100Z 05011KT 15SM BKN250 10/06 A2995 RMK CI7 SLP151

Aviation forecast (TAF) for John C. Munro Hamilton International Airport

Retrieved 2019/10/19 18:39 UTC (3 hours ago):

TAF TAF CYHM 191738Z 1918/2018 11008KT P6SM SCT025 FM200000 05007KT P6SM SCT240 FM200900 VRB03KT P6SM SCT180 PROB30 2009/2014 1SM BR RMK NXT FCST BY 200000Z